createdAt,value
2018-03-03T00:01:07.332Z,93.49
2018-03-03T00:03:34.876Z,93.37
2018-03-03T00:06:02.475Z,93.40
2018-03-03T00:08:30.037Z,93.53
2018-03-03T00:10:58.423Z,93.17
2018-03-03T00:13:26.010Z,93.40
2018-03-03T00:15:53.571Z,93.26
2018-03-03T00:18:21.121Z,92.93
2018-03-03T00:20:48.702Z,93.10
2018-03-03T00:23:16.242Z,93.58
2018-03-03T00:25:43.786Z,94.09
2018-03-03T00:28:11.368Z,93.98
2018-03-03T00:30:38.928Z,93.92
2018-03-03T00:33:06.483Z,93.90
2018-03-03T00:35:34.075Z,93.98
2018-03-03T00:38:01.634Z,93.93
2018-03-03T00:40:29.202Z,94.31
2018-03-03T00:42:56.786Z,94.15
2018-03-03T00:45:24.341Z,93.84
2018-03-03T00:47:51.884Z,93.83
2018-03-03T00:50:19.475Z,93.70
2018-03-03T00:52:47.028Z,93.67
2018-03-03T00:55:14.609Z,93.70
2018-03-03T00:57:42.200Z,93.83
2018-03-03T01:00:09.740Z,93.77
2018-03-03T01:02:37.293Z,93.18
2018-03-03T01:05:04.881Z,92.83
2018-03-03T01:07:32.427Z,92.38
2018-03-03T01:09:59.976Z,92.22
2018-03-03T01:12:27.563Z,92.38
2018-03-03T01:14:55.117Z,92.30
2018-03-03T01:17:22.669Z,92.22
2018-03-03T01:19:50.259Z,92.33
2018-03-03T01:22:17.810Z,92.41
2018-03-03T01:24:45.356Z,92.65
2018-03-03T01:27:12.936Z,93.20
2018-03-03T01:29:40.497Z,93.02
2018-03-03T01:32:08.222Z,92.75
2018-03-03T01:34:35.825Z,92.49
2018-03-03T01:37:03.376Z,92.18
2018-03-03T01:39:30.946Z,91.75
2018-03-03T01:41:58.523Z,91.61
2018-03-03T01:44:26.071Z,92.05
2018-03-03T01:46:53.621Z,92.37
2018-03-03T01:49:21.212Z,92.43
2018-03-03T01:51:48.759Z,92.39
2018-03-03T01:54:16.297Z,92.26
2018-03-03T01:56:43.878Z,92.98
2018-03-03T01:59:11.430Z,93.39
2018-03-03T02:01:38.979Z,93.52
2018-03-03T02:04:06.575Z,93.62
2018-03-03T02:06:34.155Z,93.64
2018-03-03T02:09:01.718Z,93.72
2018-03-03T02:11:29.319Z,93.77
2018-03-03T02:13:56.869Z,93.18
2018-03-03T02:16:24.426Z,92.97
2018-03-03T02:18:52.019Z,93.15
2018-03-03T02:21:19.560Z,93.37
2018-03-03T02:23:47.309Z,93.31
2018-03-03T02:26:14.916Z,93.52
2018-03-03T02:28:42.483Z,93.80
2018-03-03T02:31:10.054Z,94.21
2018-03-03T02:33:37.671Z,94.43
2018-03-03T02:36:05.248Z,94.63
2018-03-03T02:38:32.827Z,94.85
2018-03-03T02:41:00.435Z,95.23
2018-03-03T02:43:28.219Z,95.43
2018-03-03T02:45:55.787Z,95.21
2018-03-03T02:48:23.379Z,95.00
2018-03-03T02:50:50.938Z,94.81
2018-03-03T02:53:18.642Z,93.92
2018-03-03T02:55:46.286Z,93.27
2018-03-03T02:58:13.858Z,93.32
2018-03-03T03:00:41.428Z,93.25
2018-03-03T03:03:09.062Z,93.30
2018-03-03T03:05:36.769Z,93.29
2018-03-03T03:08:04.345Z,93.48
2018-03-03T03:10:31.959Z,93.52
2018-03-03T03:12:59.522Z,93.29
2018-03-03T03:15:27.092Z,93.33
2018-03-03T03:17:54.742Z,93.93
2018-03-03T03:20:22.281Z,94.10
2018-03-03T03:22:49.838Z,94.12
2018-03-03T03:25:17.455Z,94.47
2018-03-03T03:27:45.054Z,94.54
2018-03-03T03:30:12.756Z,94.38
2018-03-03T03:32:40.389Z,94.03
2018-03-03T03:35:07.954Z,93.81
2018-03-03T03:37:35.568Z,93.41
2018-03-03T03:40:03.270Z,92.87
2018-03-03T03:42:30.829Z,93.08
2018-03-03T03:44:58.398Z,92.96
2018-03-03T03:47:26.006Z,92.96
2018-03-03T03:49:53.563Z,92.86
2018-03-03T03:52:21.122Z,91.94
2018-03-03T03:54:48.709Z,92.06
2018-03-03T03:57:16.265Z,92.19
2018-03-03T03:59:43.974Z,92.17
2018-03-03T04:02:11.570Z,92.04
2018-03-03T04:04:39.129Z,91.71
2018-03-03T04:07:06.702Z,91.38
2018-03-03T04:09:34.294Z,91.34
2018-03-03T04:12:01.856Z,91.24
2018-03-03T04:14:29.423Z,91.37
2018-03-03T04:16:57.018Z,91.39
2018-03-03T04:19:24.575Z,90.47
2018-03-03T04:21:52.346Z,90.58
2018-03-03T04:24:19.983Z,90.44
2018-03-03T04:26:47.589Z,90.02
2018-03-03T04:29:15.179Z,88.51
2018-03-03T04:31:42.977Z,88.49
2018-03-03T04:34:10.544Z,89.36
2018-03-03T04:36:38.161Z,89.73
2018-03-03T04:39:05.821Z,89.86
2018-03-03T04:41:33.410Z,90.36
2018-03-03T04:44:00.993Z,90.12
2018-03-03T04:46:28.638Z,90.41
2018-03-03T04:48:56.227Z,90.36
2018-03-03T04:51:23.844Z,90.63
2018-03-03T04:53:51.485Z,90.37
2018-03-03T04:56:19.078Z,90.10
2018-03-03T04:58:57.418Z,90.54
2018-03-03T05:01:30.843Z,90.64
2018-03-03T05:07:06.998Z,91.92
2018-03-03T05:09:34.656Z,92.50
2018-03-03T05:12:02.254Z,92.07
2018-03-03T05:17:40.510Z,92.01
2018-03-03T05:23:15.356Z,92.99
2018-03-03T05:25:48.642Z,93.08
2018-03-03T05:28:21.740Z,93.42
2018-03-03T05:33:53.960Z,94.11
2018-03-03T05:36:27.112Z,93.39
2018-03-03T05:39:00.115Z,93.49
2018-03-03T05:41:33.340Z,93.59
2018-03-03T05:44:06.611Z,93.27
2018-03-03T05:46:42.878Z,93.46
2018-03-03T05:49:16.177Z,93.18
2018-03-03T05:51:49.301Z,92.45
2018-03-03T05:54:22.479Z,92.40
2018-03-03T05:56:54.074Z,92.13
2018-03-03T05:59:27.180Z,91.91
2018-03-03T06:05:09.407Z,90.53
2018-03-03T06:07:41.850Z,89.99
2018-03-03T06:10:16.850Z,90.48
2018-03-03T06:12:44.449Z,90.30
2018-03-03T06:15:12.158Z,90.35
2018-03-03T06:17:39.717Z,89.99
2018-03-03T06:20:07.320Z,89.54
2018-03-03T06:22:35.018Z,89.12
2018-03-03T06:25:02.583Z,88.77
2018-03-03T06:27:30.172Z,88.55
2018-03-03T06:29:57.955Z,88.64
2018-03-03T06:32:25.542Z,87.82
2018-03-03T06:34:53.144Z,88.05
2018-03-03T06:37:20.707Z,88.17
2018-03-03T06:39:48.264Z,87.83
2018-03-03T06:42:15.858Z,86.41
2018-03-03T06:44:43.440Z,87.16
2018-03-03T06:47:12.304Z,87.08
2018-03-03T06:49:39.906Z,84.99
2018-03-03T06:52:07.848Z,83.44
2018-03-03T06:54:35.413Z,83.60
2018-03-03T06:57:03.003Z,82.59
2018-03-03T06:59:30.562Z,81.52
2018-03-03T07:01:58.140Z,80.54
2018-03-03T07:04:25.952Z,79.67
2018-03-03T07:06:53.534Z,78.54
2018-03-03T07:09:21.156Z,73.34
2018-03-03T07:11:48.777Z,70.27
2018-03-03T07:14:16.466Z,65.33
2018-03-03T07:16:44.036Z,62.18
2018-03-03T07:19:11.626Z,61.33
2018-03-03T07:21:39.182Z,62.89
2018-03-03T07:24:06.750Z,60.65
2018-03-03T07:26:34.360Z,59.33
2018-03-03T07:29:01.933Z,58.50
2018-03-03T07:31:29.504Z,57.25
2018-03-03T07:33:57.104Z,55.18
2018-03-03T07:36:24.665Z,57.68
2018-03-03T07:38:52.237Z,60.09
2018-03-03T07:41:19.854Z,52.98
2018-03-03T07:43:47.491Z,51.54
2018-03-03T07:46:15.069Z,50.46
2018-03-03T07:48:42.677Z,49.71
2018-03-03T07:51:10.289Z,48.92
2018-03-03T07:53:37.951Z,50.02
2018-03-03T07:56:05.620Z,50.46
2018-03-03T07:58:44.999Z,48.82
2018-03-03T08:01:12.612Z,49.82
2018-03-03T08:03:40.223Z,50.38
2018-03-03T08:06:07.765Z,54.07
2018-03-03T08:08:35.516Z,55.12
2018-03-03T08:11:03.077Z,58.28
2018-03-03T08:13:30.624Z,57.88
2018-03-03T08:15:58.223Z,59.98
2018-03-03T08:18:26.023Z,60.40
2018-03-03T08:20:53.693Z,61.74
2018-03-03T08:23:21.327Z,60.79
2018-03-03T08:25:48.889Z,61.26
2018-03-03T08:28:16.465Z,66.04
2018-03-03T08:30:44.065Z,68.88
2018-03-03T08:33:11.791Z,70.43
2018-03-03T08:35:39.353Z,68.71
2018-03-03T08:38:06.990Z,69.12
2018-03-03T08:40:34.592Z,68.66
2018-03-03T08:43:02.159Z,68.78
2018-03-03T08:45:29.799Z,65.16
2018-03-03T08:47:57.374Z,59.16
2018-03-03T08:50:24.950Z,54.09
2018-03-03T08:52:52.550Z,54.54
2018-03-03T08:55:20.127Z,50.33
2018-03-03T08:57:47.798Z,49.91
2018-03-03T09:00:15.415Z,48.99
2018-03-03T09:02:42.981Z,46.34
2018-03-03T09:05:10.557Z,47.90
2018-03-03T09:07:38.169Z,46.45
2018-03-03T09:10:05.935Z,43.51
2018-03-03T09:12:33.546Z,42.90
2018-03-03T09:15:01.150Z,45.82
2018-03-03T09:17:28.723Z,47.12
2018-03-03T09:19:56.288Z,49.84
2018-03-03T09:22:23.912Z,52.89
2018-03-03T09:24:51.490Z,51.76
2018-03-03T09:27:19.153Z,52.43
2018-03-03T09:29:46.775Z,47.60
2018-03-03T09:32:14.354Z,46.82
2018-03-03T09:34:42.117Z,47.59
2018-03-03T09:37:09.727Z,48.50
2018-03-03T09:39:37.306Z,50.86
2018-03-03T09:42:04.922Z,51.19
2018-03-03T09:44:32.530Z,50.20
2018-03-03T09:47:00.226Z,49.64
2018-03-03T09:49:27.835Z,50.76
2018-03-03T09:51:55.457Z,49.14
2018-03-03T09:54:23.033Z,48.72
2018-03-03T09:56:50.725Z,48.94
2018-03-03T09:59:18.720Z,47.53
2018-03-03T10:01:52.330Z,45.17
2018-03-03T10:04:13.906Z,45.25
2018-03-03T10:06:41.510Z,48.25
2018-03-03T10:09:09.207Z,52.38
2018-03-03T10:11:36.818Z,54.82
2018-03-03T10:14:04.430Z,55.21
2018-03-03T10:16:32.145Z,56.39
2018-03-03T10:19:00.093Z,52.18
2018-03-03T10:21:27.710Z,51.21
2018-03-03T10:23:55.274Z,50.42
2018-03-03T10:26:22.954Z,48.67
2018-03-03T10:28:50.719Z,47.26
2018-03-03T10:31:18.297Z,42.37
2018-03-03T10:33:45.870Z,42.58
2018-03-03T10:36:13.477Z,38.52
2018-03-03T10:38:41.345Z,36.43
2018-03-03T10:41:08.932Z,35.16
2018-03-03T10:43:36.529Z,36.98
2018-03-03T10:46:04.179Z,37.55
2018-03-03T10:48:31.752Z,36.28
2018-03-03T10:50:59.376Z,36.84
2018-03-03T10:53:26.954Z,35.32
2018-03-03T10:55:54.513Z,34.06
2018-03-03T10:58:22.346Z,35.39
2018-03-03T11:00:50.629Z,34.99
2018-03-03T11:03:18.181Z,33.46
2018-03-03T11:05:45.792Z,32.21
2018-03-03T11:08:13.354Z,34.74
2018-03-03T11:10:40.924Z,35.31
2018-03-03T11:13:08.536Z,34.72
2018-03-03T11:15:36.098Z,36.91
2018-03-03T11:18:03.665Z,35.39
2018-03-03T11:20:31.339Z,35.70
2018-03-03T11:22:58.911Z,37.09
2018-03-03T11:25:26.486Z,37.27
2018-03-03T11:27:54.107Z,38.72
2018-03-03T11:30:21.680Z,39.42
2018-03-03T11:32:49.261Z,41.17
2018-03-03T11:35:16.876Z,41.96
2018-03-03T11:37:44.451Z,43.93
2018-03-03T11:40:12.024Z,42.23
2018-03-03T11:42:39.637Z,47.68
2018-03-03T11:45:07.194Z,53.76
2018-03-03T11:47:34.960Z,53.00
2018-03-03T11:50:02.570Z,46.73
2018-03-03T11:52:30.153Z,46.58
2018-03-03T11:54:57.721Z,47.20
2018-03-03T11:57:25.326Z,45.33
2018-03-03T11:59:52.898Z,43.22
2018-03-03T12:02:20.457Z,41.16
2018-03-03T12:04:48.064Z,42.89
2018-03-03T12:07:15.654Z,38.83
2018-03-03T12:09:43.372Z,37.69
2018-03-03T12:12:10.970Z,39.57
2018-03-03T12:14:39.492Z,39.09
2018-03-03T12:17:07.056Z,36.23
2018-03-03T12:19:34.683Z,34.60
2018-03-03T12:22:03.173Z,38.01
2018-03-03T12:24:30.914Z,40.87
2018-03-03T12:26:58.557Z,39.39
2018-03-03T12:29:26.152Z,39.85
2018-03-03T12:31:53.721Z,40.41
2018-03-03T12:34:21.315Z,38.77
2018-03-03T12:36:48.884Z,37.48
2018-03-03T12:39:16.451Z,35.14
2018-03-03T12:41:44.055Z,35.46
2018-03-03T12:44:11.807Z,34.35
2018-03-03T12:46:39.381Z,35.33
2018-03-03T12:49:07.007Z,36.49
2018-03-03T12:51:34.578Z,38.30
2018-03-03T12:54:02.160Z,37.73
2018-03-03T12:56:29.751Z,40.15
2018-03-03T12:58:57.306Z,40.20
2018-03-03T13:01:24.914Z,40.50
2018-03-03T13:03:52.517Z,40.84
2018-03-03T13:06:20.079Z,37.50
2018-03-03T13:08:47.651Z,34.20
2018-03-03T13:11:15.258Z,36.70
2018-03-03T13:13:42.823Z,38.69
2018-03-03T13:16:10.408Z,37.53
2018-03-03T13:18:37.998Z,36.14
2018-03-03T13:21:05.574Z,35.72
2018-03-03T13:23:33.142Z,34.88
2018-03-03T13:26:00.753Z,34.77
2018-03-03T13:28:28.519Z,35.91
2018-03-03T13:30:56.081Z,35.00
2018-03-03T13:33:23.736Z,35.74
2018-03-03T13:35:51.295Z,32.97
2018-03-03T13:38:18.847Z,33.29
2018-03-03T13:40:46.536Z,34.92
2018-03-03T13:43:14.138Z,37.63
2018-03-03T13:45:41.690Z,40.29
2018-03-03T13:48:09.329Z,44.55
2018-03-03T13:50:36.958Z,47.08
2018-03-03T13:53:04.556Z,48.13
2018-03-03T13:55:32.329Z,49.67
2018-03-03T13:57:59.904Z,51.46
2018-03-03T14:00:27.473Z,53.27
2018-03-03T14:02:55.078Z,54.45
2018-03-03T14:05:22.637Z,54.96
2018-03-03T14:07:50.194Z,55.49
2018-03-03T14:10:17.787Z,55.77
2018-03-03T14:12:45.372Z,56.64
2018-03-03T14:15:12.934Z,56.46
2018-03-03T14:17:40.558Z,56.62
2018-03-03T14:20:08.112Z,56.87
2018-03-03T14:22:35.672Z,56.96
2018-03-03T14:25:03.264Z,57.53
2018-03-03T14:27:30.844Z,56.62
2018-03-03T14:29:58.408Z,58.21
2018-03-03T14:32:26.010Z,56.56
2018-03-03T14:34:53.590Z,57.51
2018-03-03T14:37:21.270Z,59.41
2018-03-03T14:39:49.241Z,58.20
2018-03-03T14:42:17.395Z,57.89
2018-03-03T14:44:46.438Z,58.40
2018-03-03T14:47:14.676Z,58.29
2018-03-03T14:49:42.284Z,59.75
2018-03-03T14:52:09.841Z,59.23
2018-03-03T14:54:37.461Z,60.31
2018-03-03T14:57:05.160Z,59.61
2018-03-03T14:59:32.727Z,60.24
2018-03-03T15:02:00.377Z,61.03
2018-03-03T15:04:27.936Z,61.20
2018-03-03T15:06:55.740Z,60.46
2018-03-03T15:09:23.361Z,61.38
2018-03-03T15:11:50.932Z,61.67
2018-03-03T15:14:18.482Z,61.35
2018-03-03T15:16:46.163Z,62.63
2018-03-03T15:19:13.735Z,63.05
2018-03-03T15:21:41.300Z,62.84
2018-03-03T15:24:08.940Z,63.03
2018-03-03T15:26:36.499Z,64.42
2018-03-03T15:29:04.043Z,64.52
2018-03-03T15:31:31.643Z,65.80
2018-03-03T15:33:59.197Z,67.24
2018-03-03T15:36:26.743Z,67.75
2018-03-03T15:38:54.370Z,67.31
2018-03-03T15:41:21.929Z,68.26
2018-03-03T15:43:49.489Z,69.45
2018-03-03T15:46:17.088Z,70.12
2018-03-03T15:48:44.868Z,70.92
2018-03-03T15:51:12.426Z,71.19
2018-03-03T15:53:40.045Z,71.24
2018-03-03T15:56:07.598Z,71.45
2018-03-03T15:58:35.157Z,72.25
2018-03-03T16:01:02.735Z,72.87
2018-03-03T16:03:30.299Z,73.39
2018-03-03T16:05:57.854Z,73.40
2018-03-03T16:08:25.689Z,74.12
2018-03-03T16:10:53.517Z,76.32
2018-03-03T16:13:21.071Z,77.22
2018-03-03T16:15:48.811Z,78.36
2018-03-03T16:18:16.402Z,78.31
2018-03-03T16:20:43.964Z,80.92
2018-03-03T16:23:11.568Z,79.63
2018-03-03T16:25:39.250Z,80.95
2018-03-03T16:28:06.751Z,81.23
2018-03-03T16:30:34.392Z,82.05
2018-03-03T16:33:01.955Z,82.80
2018-03-03T16:35:29.511Z,84.69
2018-03-03T16:37:57.103Z,85.84
2018-03-03T16:40:24.807Z,84.64
2018-03-03T16:42:52.378Z,86.09
2018-03-03T16:45:19.976Z,84.33
2018-03-03T16:47:47.526Z,84.04
2018-03-03T16:50:15.080Z,87.87
2018-03-03T16:52:42.756Z,88.99
2018-03-03T16:55:10.380Z,87.92
2018-03-03T16:57:37.943Z,89.23
2018-03-03T17:00:05.570Z,88.55
2018-03-03T17:02:33.125Z,89.03
2018-03-03T17:05:00.706Z,89.70
2018-03-03T17:07:28.314Z,88.29
2018-03-03T17:09:55.877Z,88.58
2018-03-03T17:12:23.438Z,90.14
2018-03-03T17:14:51.022Z,89.99
2018-03-03T17:17:18.590Z,89.53
2018-03-03T17:19:46.171Z,90.78
2018-03-03T17:22:13.774Z,90.39
2018-03-03T17:24:41.338Z,90.59
2018-03-03T17:27:08.893Z,90.42
2018-03-03T17:29:36.480Z,89.82
2018-03-03T17:32:04.026Z,90.12
2018-03-03T17:34:31.585Z,90.83
2018-03-03T17:36:59.183Z,91.34
2018-03-03T17:39:26.754Z,91.25
2018-03-03T17:41:54.317Z,91.22
2018-03-03T17:44:21.985Z,91.73
2018-03-03T17:46:49.570Z,92.29
2018-03-03T17:49:17.164Z,92.71
2018-03-03T17:51:44.776Z,92.63
2018-03-03T17:54:12.378Z,92.44
2018-03-03T17:56:39.948Z,92.40
2018-03-03T17:59:07.553Z,92.18
2018-03-03T18:01:35.127Z,91.64
2018-03-03T18:04:02.771Z,91.08
2018-03-03T18:06:30.358Z,90.92
2018-03-03T18:08:57.929Z,90.68
2018-03-03T18:11:25.503Z,90.50
2018-03-03T18:13:56.892Z,90.27
2018-03-03T18:16:24.463Z,89.75
2018-03-03T18:18:52.135Z,89.98
2018-03-03T18:21:19.729Z,91.52
2018-03-03T18:23:47.276Z,92.56
2018-03-03T18:26:14.841Z,93.04
2018-03-03T18:28:42.592Z,93.39
2018-03-03T18:31:10.209Z,93.89
2018-03-03T18:33:37.788Z,93.57
2018-03-03T18:36:05.586Z,93.67
2018-03-03T18:38:33.245Z,93.94
2018-03-03T18:41:00.832Z,93.94
2018-03-03T18:43:28.434Z,93.56
2018-03-03T18:45:56.031Z,93.98
2018-03-03T18:48:23.636Z,94.23
2018-03-03T18:50:51.230Z,94.39
2018-03-03T18:53:18.795Z,94.02
2018-03-03T18:55:46.347Z,93.57
2018-03-03T18:58:13.974Z,93.98
2018-03-03T19:00:41.629Z,94.40
2018-03-03T19:03:09.225Z,94.66
2018-03-03T19:05:36.812Z,94.84
2018-03-03T19:08:04.375Z,94.74
2018-03-03T19:10:31.929Z,95.28
2018-03-03T19:12:59.509Z,96.05
2018-03-03T19:15:27.061Z,95.65
2018-03-03T19:17:54.620Z,95.54
2018-03-03T19:20:22.241Z,95.68
2018-03-03T19:22:49.804Z,95.43
2018-03-03T19:25:17.372Z,95.65
2018-03-03T19:27:44.980Z,96.20
2018-03-03T19:30:12.718Z,96.83
2018-03-03T19:32:40.297Z,96.38
2018-03-03T19:35:07.894Z,96.08
2018-03-03T19:37:35.459Z,95.59
2018-03-03T19:40:03.160Z,95.49
2018-03-03T19:42:30.750Z,95.18
2018-03-03T19:44:58.297Z,95.11
2018-03-03T19:47:25.876Z,95.54
2018-03-03T19:49:53.483Z,95.83
2018-03-03T19:52:21.096Z,96.20
2018-03-03T19:54:48.651Z,96.38
2018-03-03T19:57:16.250Z,96.35
2018-03-03T19:59:43.810Z,96.40
2018-03-03T20:02:11.427Z,96.27
2018-03-03T20:04:39.039Z,96.34
2018-03-03T20:07:06.630Z,96.25
2018-03-03T20:09:34.199Z,96.08
2018-03-03T20:12:01.914Z,95.93
2018-03-03T20:14:29.513Z,96.02
2018-03-03T20:16:57.075Z,96.14
2018-03-03T20:19:24.676Z,96.09
2018-03-03T20:21:52.380Z,96.26
2018-03-03T20:24:19.958Z,96.11
2018-03-03T20:26:47.513Z,95.98
2018-03-03T20:29:15.157Z,96.35
2018-03-03T20:31:42.744Z,96.64
2018-03-03T20:34:10.324Z,96.87
2018-03-03T20:36:38.910Z,97.19
2018-03-03T20:39:06.495Z,96.87
2018-03-03T20:41:34.100Z,96.79
2018-03-03T20:44:01.711Z,96.78
2018-03-03T20:46:29.290Z,96.43
2018-03-03T20:48:57.088Z,96.27
2018-03-03T20:51:24.685Z,95.96
2018-03-03T20:53:52.399Z,95.72
2018-03-03T20:56:19.956Z,95.70
2018-03-03T20:58:47.559Z,95.78
2018-03-03T21:01:15.120Z,95.90
2018-03-03T21:03:42.670Z,96.03
2018-03-03T21:06:10.259Z,95.82
2018-03-03T21:08:37.819Z,95.29
2018-03-03T21:11:05.407Z,95.17
2018-03-03T21:13:33.031Z,95.47
2018-03-03T21:16:00.593Z,95.63
2018-03-03T21:18:28.140Z,95.90
2018-03-03T21:20:55.799Z,95.56
2018-03-03T21:23:23.359Z,95.19
2018-03-03T21:25:50.914Z,94.96
2018-03-03T21:28:18.510Z,95.13
2018-03-03T21:30:46.070Z,95.30
2018-03-03T21:33:13.633Z,95.18
2018-03-03T21:35:41.220Z,95.25
2018-03-03T21:38:08.780Z,95.30
2018-03-03T21:40:36.364Z,95.36
2018-03-03T21:43:03.961Z,95.61
2018-03-03T21:45:31.538Z,95.62
2018-03-03T21:47:59.102Z,95.66
2018-03-03T21:50:26.811Z,95.92
2018-03-03T21:52:54.368Z,96.18
2018-03-03T21:55:21.928Z,96.32
2018-03-03T21:57:49.596Z,96.52
2018-03-03T22:00:17.153Z,96.65
2018-03-03T22:02:44.719Z,96.50
2018-03-03T22:05:12.467Z,96.08
2018-03-03T22:07:40.243Z,96.31
2018-03-03T22:10:07.815Z,96.24
2018-03-03T22:12:35.417Z,95.74
2018-03-03T22:15:03.040Z,95.43
2018-03-03T22:17:30.616Z,95.11
2018-03-03T22:19:58.322Z,94.66
2018-03-03T22:22:25.886Z,94.24
2018-03-03T22:24:53.451Z,94.27
2018-03-03T22:27:21.031Z,94.19
2018-03-03T22:29:48.593Z,94.39
2018-03-03T22:32:16.170Z,94.87
2018-03-03T22:34:43.779Z,94.84
2018-03-03T22:37:11.344Z,94.28
2018-03-03T22:39:38.927Z,93.71
2018-03-03T22:42:06.518Z,93.52
2018-03-03T22:44:34.064Z,93.55
2018-03-03T22:47:01.685Z,93.61
2018-03-03T22:49:29.240Z,93.35
2018-03-03T22:51:56.876Z,93.35
2018-03-03T22:54:24.431Z,93.17
2018-03-03T22:56:52.016Z,92.44
2018-03-03T22:59:19.642Z,92.50
2018-03-03T23:01:47.183Z,92.79
2018-03-03T23:04:14.807Z,92.67
2018-03-03T23:06:42.376Z,93.04
2018-03-03T23:09:09.929Z,92.89
2018-03-03T23:11:37.528Z,93.37
2018-03-03T23:14:05.089Z,94.03
2018-03-03T23:16:32.644Z,94.09
2018-03-03T23:19:00.247Z,94.28
2018-03-03T23:21:27.818Z,94.06
2018-03-03T23:23:55.378Z,93.95
2018-03-03T23:26:22.988Z,93.98
2018-03-03T23:28:50.551Z,93.93
2018-03-03T23:31:18.098Z,93.89
2018-03-03T23:33:45.723Z,93.98
2018-03-03T23:36:13.277Z,94.22
2018-03-03T23:38:40.834Z,94.10
2018-03-03T23:41:08.435Z,93.92
2018-03-03T23:43:36.180Z,93.91
2018-03-03T23:46:03.745Z,93.77
2018-03-03T23:48:31.363Z,93.30
2018-03-03T23:50:58.944Z,93.04
2018-03-03T23:53:26.503Z,92.80
2018-03-03T23:55:54.117Z,92.70
2018-03-03T23:58:21.685Z,92.71
